Time;durP1;ratioP1;P1;durP2;ratioP2;P2;SDS_P1;SDS_P2;PMS_P1;PMS_P2;Temp;Humidity;BMP_temperature;BMP_pressure;BME280_temperature;BME280_humidity;BME280_pressure;Samples;Min_cycle;Max_cycle;Signal;HPM_P1;HPM_P2
2023/08/12 00:00:51;;;;;;;6.38;2.20;;;20.90;99.90;;;;;;5073654;28;20020;-39
2023/08/12 00:03:16;;;;;;;5.30;2.47;;;20.90;99.90;;;;;;5068940;28;20111;-49
2023/08/12 00:05:42;;;;;;;5.32;2.42;;;20.90;99.90;;;;;;5053521;28;20021;-52
2023/08/12 00:08:08;;;;;;;2.78;2.03;;;20.90;99.90;;;;;;5053557;28;20040;-50
2023/08/12 00:10:34;;;;;;;6.55;2.30;;;20.90;99.90;;;;;;5055889;28;20057;-49
2023/08/12 00:13:00;;;;;;;5.22;2.55;;;20.80;99.90;;;;;;5073387;28;20024;-49
2023/08/12 00:15:26;;;;;;;3.72;2.33;;;20.80;99.90;;;;;;5073355;28;20461;-47
2023/08/12 00:17:52;;;;;;;3.10;2.15;;;20.80;99.90;;;;;;5073379;28;20096;-51
2023/08/12 00:20:18;;;;;;;4.20;2.33;;;20.90;99.90;;;;;;5073151;28;20028;-49
2023/08/12 00:22:44;;;;;;;2.97;2.00;;;20.90;99.90;;;;;;5055267;28;20378;-50
2023/08/12 00:25:10;;;;;;;4.65;2.83;;;20.90;99.90;;;;;;5073449;28;20024;-52
2023/08/12 00:27:37;;;;;;;6.05;2.70;;;20.90;99.90;;;;;;5073066;28;20111;-47
2023/08/12 00:30:04;;;;;;;8.05;3.33;;;20.90;99.90;;;;;;5072395;28;20021;-52
2023/08/12 00:32:30;;;;;;;4.72;2.25;;;20.90;99.90;;;;;;5069275;28;20020;-51
2023/08/12 00:34:56;;;;;;;5.25;2.60;;;20.90;99.90;;;;;;5073021;28;20021;-51
2023/08/12 00:37:22;;;;;;;11.57;2.75;;;20.90;99.90;;;;;;5072760;28;20103;-53
2023/08/12 00:39:48;;;;;;;6.75;2.83;;;20.90;99.90;;;;;;5071559;28;20012;-51
2023/08/12 00:42:13;;;;;;;7.32;2.53;;;20.90;99.90;;;;;;5072908;28;20492;-49
2023/08/12 00:44:39;;;;;;;4.32;2.80;;;20.90;99.90;;;;;;5072933;28;20077;-51
2023/08/12 00:47:05;;;;;;;5.63;2.42;;;20.90;99.90;;;;;;5072923;28;20082;-49
2023/08/12 00:49:32;;;;;;;7.18;3.47;;;21.00;99.90;;;;;;5072888;28;20547;-51
2023/08/12 00:51:58;;;;;;;;;;;20.90;99.90;;;;;;5058324;28;20033;-52
2023/08/12 00:54:25;;;;;;;5.78;3.00;;;20.90;99.90;;;;;;5059093;28;19905;-46
2023/08/12 00:56:53;;;;;;;12.35;3.30;;;20.90;99.90;;;;;;5072556;28;20556;-48
2023/08/12 00:59:20;;;;;;;5.88;3.45;;;20.80;99.90;;;;;;5072815;28;20100;-51
2023/08/12 01:01:47;;;;;;;9.05;3.20;;;20.80;99.90;;;;;;5072362;28;20032;-49
2023/08/12 01:04:13;;;;;;;5.05;2.80;;;20.80;99.90;;;;;;5071951;28;20067;-48
2023/08/12 01:06:38;;;;;;;9.10;3.30;;;20.80;99.90;;;;;;5072124;28;20063;-47
2023/08/12 01:09:05;;;;;;;7.05;3.20;;;20.80;99.90;;;;;;5072619;28;20060;-51
2023/08/12 01:12:12;;;;;;;5.88;3.08;;;20.80;99.90;;;;;;5072265;28;20082;-52
2023/08/12 01:15:01;;;;;;;8.55;4.00;;;20.80;99.90;;;;;;5072338;28;20020;-49
2023/08/12 01:17:29;;;;;;;8.88;3.85;;;20.80;99.90;;;;;;5072439;28;20070;-61
2023/08/12 01:19:56;;;;;;;7.65;3.65;;;20.80;99.90;;;;;;5072622;28;20029;-44
2023/08/12 01:22:23;;;;;;;8.20;3.50;;;20.80;99.90;;;;;;5072545;28;20107;-51
2023/08/12 01:24:51;;;;;;;8.55;4.43;;;20.80;99.90;;;;;;5072799;28;20273;-51
2023/08/12 01:27:16;;;;;;;10.93;4.05;;;20.80;99.90;;;;;;5057223;28;20500;-48
2023/08/12 01:29:45;;;;;;;8.20;4.32;;;20.80;99.90;;;;;;5068529;28;20025;-50
2023/08/12 01:32:32;;;;;;;9.57;4.18;;;20.70;99.90;;;;;;5069984;28;20397;-46
2023/08/12 01:35:03;;;;;;;10.20;5.78;;;20.70;99.90;;;;;;5063166;28;20025;-51
2023/08/12 01:37:30;;;;;;;8.48;4.43;;;20.80;99.90;;;;;;5072365;28;20542;-52
2023/08/12 01:40:00;;;;;;;8.85;4.57;;;20.70;99.90;;;;;;5072181;28;20465;-48
2023/08/12 01:42:27;;;;;;;11.43;5.78;;;20.70;99.90;;;;;;5076275;28;20056;-52
2023/08/12 01:44:53;;;;;;;4.95;4.32;;;20.70;99.90;;;;;;5074840;28;20388;-50
2023/08/12 01:47:19;;;;;;;9.90;5.68;;;20.70;99.90;;;;;;5056139;28;20100;-50
2023/08/12 01:49:45;;;;;;;10.25;6.05;;;20.70;99.90;;;;;;5056184;28;20439;-48
2023/08/12 01:52:10;;;;;;;11.38;5.20;;;20.70;99.90;;;;;;5055807;28;20036;-53
2023/08/12 01:54:36;;;;;;;10.05;4.93;;;20.70;99.90;;;;;;5056951;28;20025;-51
2023/08/12 01:57:06;;;;;;;9.50;4.57;;;20.70;99.90;;;;;;5075889;28;20552;-51
2023/08/12 01:59:32;;;;;;;9.65;5.03;;;20.80;99.90;;;;;;5075245;28;20033;-51
2023/08/12 02:01:58;;;;;;;14.30;5.07;;;20.70;99.90;;;;;;5075805;28;20101;-51
2023/08/12 02:04:24;;;;;;;17.77;5.65;;;20.70;99.90;;;;;;5074327;28;20569;-52
2023/08/12 02:06:49;;;;;;;10.35;4.50;;;20.80;99.90;;;;;;5075822;28;20040;-48
2023/08/12 02:09:15;;;;;;;8.55;4.78;;;20.70;99.90;;;;;;5075027;28;20036;-50
2023/08/12 02:11:41;;;;;;;8.23;4.25;;;20.80;99.90;;;;;;5073876;28;20036;-52
2023/08/12 02:14:06;;;;;;;8.40;5.18;;;20.80;99.90;;;;;;5075811;28;20424;-52
2023/08/12 02:16:32;;;;;;;10.05;5.72;;;20.80;99.90;;;;;;5075683;28;20062;-39
2023/08/12 02:18:58;;;;;;;14.07;5.88;;;20.80;99.90;;;;;;5074774;28;20028;-40
2023/08/12 02:21:23;;;;;;;9.57;4.43;;;20.80;99.90;;;;;;5075597;28;20389;-39
2023/08/12 02:23:49;;;;;;;6.63;4.78;;;20.70;99.90;;;;;;5074708;28;20032;-39
2023/08/12 02:26:15;;;;;;;10.23;5.25;;;20.70;99.90;;;;;;5074530;28;20025;-38
2023/08/12 02:28:41;;;;;;;8.43;4.50;;;20.70;99.90;;;;;;5075503;28;20107;-39
2023/08/12 02:31:07;;;;;;;8.18;5.20;;;20.70;99.90;;;;;;5073299;28;20048;-39
2023/08/12 02:33:32;;;;;;;8.43;4.78;;;20.70;99.90;;;;;;5075291;28;20066;-41
2023/08/12 02:35:58;;;;;;;9.20;5.55;;;20.70;99.90;;;;;;5073142;28;20056;-39
2023/08/12 02:38:24;;;;;;;8.70;5.07;;;20.70;99.90;;;;;;5073609;28;20472;-39
2023/08/12 02:40:50;;;;;;;17.45;5.13;;;20.70;99.90;;;;;;5074677;28;20047;-42
2023/08/12 02:43:16;;;;;;;9.77;4.65;;;20.70;99.90;;;;;;5055526;28;20035;-40
2023/08/12 02:45:42;;;;;;;8.90;4.70;;;20.70;99.90;;;;;;5057345;28;20025;-41
2023/08/12 02:48:09;;;;;;;12.65;4.88;;;20.70;99.90;;;;;;5074293;28;20024;-60
2023/08/12 02:50:35;;;;;;;11.05;5.38;;;20.70;99.90;;;;;;5075315;28;20024;-40
2023/08/12 02:53:01;;;;;;;7.75;4.97;;;20.70;99.90;;;;;;5055334;28;20039;-38
2023/08/12 02:55:26;;;;;;;9.85;5.25;;;20.70;99.90;;;;;;5072335;28;20084;-39
2023/08/12 02:57:52;;;;;;;9.13;4.97;;;20.70;99.90;;;;;;5074896;28;20074;-39
2023/08/12 03:00:18;;;;;;;8.60;4.95;;;20.70;99.90;;;;;;5074001;28;20500;-38
2023/08/12 03:02:44;;;;;;;8.82;4.82;;;20.70;99.90;;;;;;5073950;28;20466;-50
2023/08/12 03:05:10;;;;;;;20.02;6.10;;;20.70;99.90;;;;;;5074862;28;20029;-50
2023/08/12 03:07:35;;;;;;;8.90;5.68;;;20.70;99.90;;;;;;5074722;28;20088;-51
2023/08/12 03:10:01;;;;;;;8.85;5.30;;;20.80;99.90;;;;;;5074045;28;20081;-49
2023/08/12 03:12:27;;;;;;;13.40;5.45;;;20.70;99.90;;;;;;5074765;28;20492;-52
2023/08/12 03:14:52;;;;;;;15.18;6.38;;;20.80;99.90;;;;;;5074685;28;20028;-51
2023/08/12 03:17:18;;;;;;;11.63;5.97;;;20.70;99.90;;;;;;5073287;28;20021;-51
2023/08/12 03:19:43;;;;;;;13.25;5.97;;;20.80;99.90;;;;;;5073790;28;20495;-49
2023/08/12 03:22:09;;;;;;;12.68;5.65;;;20.80;99.90;;;;;;5073590;28;20036;-52
2023/08/12 03:24:35;;;;;;;10.23;5.20;;;20.80;99.90;;;;;;5074370;28;20373;-51
2023/08/12 03:27:00;;;;;;;16.98;7.07;;;20.80;99.90;;;;;;5073535;28;20017;-52
2023/08/12 03:29:26;;;;;;;12.30;6.50;;;20.80;99.90;;;;;;5074643;28;20020;-50
2023/08/12 03:31:51;;;;;;;13.32;6.60;;;20.80;99.90;;;;;;5073365;28;20105;-38
2023/08/12 03:34:17;;;;;;;13.30;6.72;;;20.90;99.90;;;;;;5074007;28;20044;-38
2023/08/12 03:36:43;;;;;;;11.27;6.43;;;20.90;99.90;;;;;;5074244;28;20507;-43
2023/08/12 03:39:09;;;;;;;9.90;5.97;;;21.00;99.90;;;;;;5074365;28;20450;-38
2023/08/12 03:41:34;;;;;;;10.23;5.78;;;21.00;99.90;;;;;;5073183;28;20060;-39
2023/08/12 03:44:00;;;;;;;13.27;6.10;;;21.00;99.90;;;;;;5074386;28;20048;-38
2023/08/12 03:46:26;;;;;;;11.82;5.88;;;20.90;99.90;;;;;;5073334;28;20020;-38
2023/08/12 03:48:53;;;;;;;15.43;7.00;;;20.80;99.90;;;;;;5073176;28;20029;-37
2023/08/12 03:51:19;;;;;;;11.63;6.25;;;20.80;99.90;;;;;;5073809;28;20051;-40
2023/08/12 03:53:45;;;;;;;9.85;5.63;;;20.80;99.90;;;;;;5073852;28;20025;-39
2023/08/12 03:56:14;;;;;;;11.70;5.95;;;20.70;99.90;;;;;;5073595;28;20148;-38
2023/08/12 03:58:40;;;;;;;11.27;7.18;;;20.70;99.90;;;;;;5073092;28;20020;-40
2023/08/12 04:01:06;;;;;;;10.68;6.40;;;20.60;99.90;;;;;;5070511;28;20021;-40
2023/08/12 04:03:32;;;;;;;11.65;6.78;;;20.60;99.90;;;;;;5070238;28;20036;-39
2023/08/12 04:05:57;;;;;;;10.57;7.07;;;20.60;99.90;;;;;;5073515;28;20401;-38
2023/08/12 04:08:24;;;;;;;19.75;6.57;;;20.60;99.90;;;;;;5071296;28;20031;-48
2023/08/12 04:10:50;;;;;;;17.30;6.70;;;20.60;99.90;;;;;;5069547;28;20024;-38
2023/08/12 04:13:16;;;;;;;10.63;6.10;;;20.60;99.90;;;;;;5070149;28;20025;-40
2023/08/12 04:15:48;;;;;;;18.67;6.55;;;20.60;99.90;;;;;;5070841;28;20297;-39
2023/08/12 04:18:13;;;;;;;9.90;7.13;;;20.60;99.90;;;;;;5072073;28;20028;-39
2023/08/12 04:20:39;;;;;;;10.80;6.05;;;20.60;99.90;;;;;;5070105;28;20070;-39
2023/08/12 04:23:05;;;;;;;10.95;7.10;;;20.70;99.90;;;;;;5072038;28;20033;-38
2023/08/12 04:25:30;;;;;;;11.68;5.93;;;20.70;99.90;;;;;;5070679;28;20035;-40
2023/08/12 04:27:56;;;;;;;11.48;6.05;;;20.70;99.90;;;;;;5072428;28;20029;-38
2023/08/12 04:30:22;;;;;;;12.32;6.47;;;20.70;99.90;;;;;;5070357;28;21398;-38
2023/08/12 04:32:47;;;;;;;9.25;6.40;;;20.70;99.90;;;;;;5070374;28;20133;-39
2023/08/12 04:35:13;;;;;;;11.52;6.30;;;20.70;99.90;;;;;;5071039;28;20020;-40
2023/08/12 04:37:39;;;;;;;12.73;6.85;;;20.70;99.90;;;;;;5068216;28;20029;-39
2023/08/12 04:40:08;;;;;;;15.73;7.15;;;20.70;99.90;;;;;;5061605;28;20025;-39
2023/08/12 04:42:34;;;;;;;11.75;7.05;;;20.70;99.90;;;;;;5055071;28;20115;-39
2023/08/12 04:44:59;;;;;;;14.52;6.20;;;20.80;99.90;;;;;;5072027;28;20104;-38
2023/08/12 04:47:25;;;;;;;13.25;6.63;;;20.80;99.90;;;;;;5072936;28;20392;-39
2023/08/12 04:49:51;;;;;;;12.50;7.13;;;20.70;99.90;;;;;;5072174;28;20025;-45
2023/08/12 04:52:18;;;;;;;11.48;6.40;;;20.80;99.90;;;;;;5072739;28;20081;-39
2023/08/12 04:54:44;;;;;;;14.30;6.93;;;20.80;99.90;;;;;;5061972;28;20508;-39
2023/08/12 04:57:10;;;;;;;8.32;5.85;;;20.80;99.90;;;;;;5052655;28;20061;-40
2023/08/12 04:59:35;;;;;;;15.40;7.32;;;20.70;99.90;;;;;;5053574;28;20029;-38
2023/08/12 05:02:01;;;;;;;16.80;7.32;;;20.70;99.90;;;;;;5066326;28;20449;-43
2023/08/12 05:04:26;;;;;;;11.85;7.13;;;20.70;99.90;;;;;;5072859;28;20028;-39
2023/08/12 05:06:52;;;;;;;18.40;7.18;;;20.80;99.90;;;;;;5072741;28;20393;-40
2023/08/12 05:09:18;;;;;;;11.57;6.80;;;20.70;99.90;;;;;;5072209;28;20039;-39
2023/08/12 05:11:43;;;;;;;16.83;7.38;;;20.70;99.90;;;;;;5063473;28;20033;-40
2023/08/12 05:14:09;;;;;;;14.45;6.65;;;20.80;99.90;;;;;;5068786;28;20100;-40
2023/08/12 05:16:35;;;;;;;13.80;5.82;;;20.70;99.90;;;;;;5071661;28;20032;-39
2023/08/12 05:19:00;;;;;;;13.85;7.40;;;20.80;99.90;;;;;;5072006;28;20021;-39
2023/08/12 05:21:26;;;;;;;13.75;6.55;;;20.80;99.90;;;;;;5072138;28;20392;-40
2023/08/12 05:23:52;;;;;;;11.30;7.72;;;20.80;99.90;;;;;;5072823;28;20029;-38
2023/08/12 05:26:18;;;;;;;16.90;7.95;;;20.80;99.90;;;;;;5054517;28;20031;-39
2023/08/12 05:28:43;;;;;;;17.30;8.52;;;20.80;99.90;;;;;;5071832;28;20067;-41
2023/08/12 05:31:09;;;;;;;11.88;7.03;;;20.80;99.90;;;;;;5071856;28;20463;-61
2023/08/12 05:33:35;;;;;;;13.90;8.60;;;20.80;99.90;;;;;;5072520;28;20024;-38
2023/08/12 05:36:00;;;;;;;10.90;7.18;;;20.80;99.90;;;;;;5072706;28;20051;-46
2023/08/12 05:38:26;;;;;;;15.00;7.97;;;20.80;99.90;;;;;;5072458;28;20027;-39
2023/08/12 05:40:51;;;;;;;13.52;6.38;;;20.80;99.90;;;;;;5070830;28;20029;-51
2023/08/12 05:43:17;;;;;;;14.45;7.43;;;20.80;99.90;;;;;;5072455;28;20516;-52
2023/08/12 05:45:43;;;;;;;16.10;7.30;;;20.90;99.90;;;;;;5062627;28;20086;-52
2023/08/12 05:48:09;;;;;;;13.73;7.55;;;20.90;99.90;;;;;;5052278;28;20465;-53
2023/08/12 05:50:34;;;;;;;14.13;7.40;;;20.80;99.90;;;;;;5065625;28;20040;-51
2023/08/12 05:53:00;;;;;;;14.77;7.53;;;20.80;99.90;;;;;;5072137;28;20470;-48
2023/08/12 05:55:26;;;;;;;12.73;6.70;;;20.80;99.90;;;;;;5072143;28;20480;-48
2023/08/12 05:57:51;;;;;;;10.07;6.90;;;20.70;99.90;;;;;;5071529;28;20024;-52
2023/08/12 06:00:17;;;;;;;18.90;6.10;;;20.70;99.90;;;;;;5071419;28;20021;-51
2023/08/12 06:02:43;;;;;;;10.77;4.38;;;20.70;99.90;;;;;;5050108;28;20118;-50
2023/08/12 06:05:09;;;;;;;10.48;3.85;;;20.60;99.90;;;;;;5052231;28;20501;-50
2023/08/12 06:07:34;;;;;;;8.50;3.97;;;20.50;99.90;;;;;;5056060;28;20055;-47
2023/08/12 06:10:00;;;;;;;7.13;4.88;;;20.30;99.90;;;;;;5072653;28;20036;-51
2023/08/12 06:12:26;;;;;;;8.02;4.90;;;20.20;99.90;;;;;;5071930;28;20028;-49
2023/08/12 06:14:52;;;;;;;6.93;4.53;;;20.10;99.90;;;;;;5071299;28;20500;-46
2023/08/12 06:17:17;;;;;;;4.95;3.83;;;20.10;99.90;;;;;;5070683;28;20078;-49
2023/08/12 06:19:43;;;;;;;7.10;3.47;;;19.90;99.90;;;;;;5063246;28;20100;-50
2023/08/12 06:22:09;;;;;;;6.97;3.78;;;19.90;99.90;;;;;;5051939;28;20124;-47
2023/08/12 06:24:34;;;;;;;6.55;3.65;;;19.90;99.90;;;;;;5051664;28;20136;-46
2023/08/12 06:27:00;;;;;;;9.43;4.05;;;19.80;99.90;;;;;;5071772;28;20466;-51
2023/08/12 06:29:25;;;;;;;7.78;3.85;;;19.70;99.90;;;;;;5075474;28;20108;-50
2023/08/12 06:31:52;;;;;;;4.00;2.65;;;19.70;99.90;;;;;;5074335;28;20029;-50
2023/08/12 06:34:18;;;;;;;2.80;2.05;;;19.70;99.90;;;;;;5075487;28;20525;-52
2023/08/12 06:36:44;;;;;;;4.30;2.10;;;19.70;99.90;;;;;;5064851;28;20117;-52
2023/08/12 06:39:09;;;;;;;3.47;1.98;;;19.70;99.90;;;;;;5055350;28;20032;-62
2023/08/12 06:41:35;;;;;;;2.35;1.70;;;19.70;99.90;;;;;;5055570;28;20561;-54
2023/08/12 06:44:01;;;;;;;1.50;1.40;;;19.70;99.90;;;;;;5055352;28;20082;-37
2023/08/12 06:46:26;;;;;;;2.42;1.60;;;19.70;99.90;;;;;;5070013;28;20025;-38
2023/08/12 06:48:52;;;;;;;1.55;1.45;;;19.70;99.90;;;;;;5075282;28;20056;-38
2023/08/12 06:51:18;;;;;;;2.13;1.60;;;19.70;99.90;;;;;;5075081;28;20389;-52
2023/08/12 06:53:43;;;;;;;2.53;1.70;;;19.70;99.90;;;;;;5056416;28;20043;-43
2023/08/12 06:56:09;;;;;;;2.17;1.83;;;19.70;99.90;;;;;;5069316;28;20489;-50
2023/08/12 06:58:35;;;;;;;2.17;1.98;;;19.70;99.90;;;;;;5074814;28;20024;-50
2023/08/12 07:01:00;;;;;;;4.50;1.50;;;19.70;99.90;;;;;;5073876;28;20027;-49
2023/08/12 07:03:26;;;;;;;3.17;1.98;;;19.70;99.90;;;;;;5065373;28;20066;-37
2023/08/12 07:05:53;;;;;;;1.98;1.70;;;19.70;99.90;;;;;;5072389;28;20548;-36
2023/08/12 07:08:19;;;;;;;2.33;1.65;;;19.70;99.90;;;;;;5072097;28;20021;-36
2023/08/12 07:10:45;;;;;;;2.53;1.80;;;19.80;99.90;;;;;;5070737;28;20082;-37
2023/08/12 07:13:10;;;;;;;4.80;1.88;;;19.70;99.90;;;;;;5073307;28;20066;-36
2023/08/12 07:15:36;;;;;;;1.95;1.50;;;19.80;99.90;;;;;;5073756;28;20029;-37
2023/08/12 07:18:02;;;;;;;2.78;1.95;;;19.70;99.90;;;;;;5073817;28;20028;-37
2023/08/12 07:20:28;;;;;;;3.58;1.80;;;19.80;99.90;;;;;;5073793;28;20021;-36
2023/08/12 07:22:53;;;;;;;2.30;1.70;;;19.70;99.90;;;;;;5074567;28;20546;-37
2023/08/12 07:25:19;;;;;;;1.55;1.45;;;19.70;99.90;;;;;;5046468;28;20029;-37
2023/08/12 07:27:45;;;;;;;3.20;1.70;;;19.70;99.90;;;;;;5054773;28;20473;-46
2023/08/12 07:30:11;;;;;;;2.10;1.90;;;19.70;99.90;;;;;;5074270;28;20025;-39
2023/08/12 07:32:38;;;;;;;2.50;2.30;;;19.70;99.90;;;;;;5074438;28;20484;-40
2023/08/12 07:35:05;;;;;;;2.80;1.95;;;19.70;99.90;;;;;;5073551;28;20062;-36
2023/08/12 07:37:31;;;;;;;;;;;19.80;99.90;;;;;;5074243;28;20096;-36
2023/08/12 07:39:57;;;;;;;3.13;2.03;;;19.70;99.90;;;;;;5071960;28;20031;-37
2023/08/12 07:42:22;;;;;;;4.00;1.85;;;19.80;99.90;;;;;;5073769;28;20032;-37
2023/08/12 07:44:48;;;;;;;3.20;2.67;;;19.80;99.90;;;;;;5064653;28;20486;-36
2023/08/12 07:47:15;;;;;;;3.35;3.05;;;19.80;99.90;;;;;;5066735;28;20036;-36
2023/08/12 07:49:41;;;;;;;2.60;2.40;;;19.80;99.90;;;;;;5054561;28;20032;-36
2023/08/12 07:52:06;;;;;;;3.85;1.92;;;19.90;99.90;;;;;;5071316;28;20028;-37
2023/08/12 07:54:32;;;;;;;4.80;2.28;;;19.80;99.90;;;;;;5056390;28;20073;-37
2023/08/12 07:56:58;;;;;;;1.50;1.40;;;19.80;99.90;;;;;;5065947;28;20079;-36
2023/08/12 07:59:23;;;;;;;2.65;1.48;;;19.90;99.90;;;;;;5054165;28;20037;-37
2023/08/12 08:01:49;;;;;;;2.42;1.90;;;19.90;99.90;;;;;;5054941;28;20024;-37
2023/08/12 08:04:14;;;;;;;2.33;1.40;;;19.90;99.90;;;;;;5071693;28;20036;-36
2023/08/12 08:06:40;;;;;;;1.63;1.00;;;19.90;99.90;;;;;;5073532;28;20027;-38
2023/08/12 08:09:06;;;;;;;0.90;0.90;;;19.90;99.90;;;;;;5070577;28;20032;-35
2023/08/12 08:11:32;;;;;;;1.70;0.90;;;19.90;99.90;;;;;;5073436;28;20028;-37
2023/08/12 08:13:58;;;;;;;0.93;0.85;;;19.90;99.90;;;;;;5068585;28;20070;-38
2023/08/12 08:16:24;;;;;;;1.38;0.88;;;19.90;99.90;;;;;;5059785;28;20027;-36
2023/08/12 08:18:50;;;;;;;0.65;0.65;;;19.90;99.90;;;;;;5067422;28;20497;-36
2023/08/12 08:21:16;;;;;;;0.80;0.63;;;19.90;99.90;;;;;;5073171;28;20028;-36
2023/08/12 08:23:42;;;;;;;1.65;0.95;;;20.00;99.90;;;;;;5072370;28;20036;-37
2023/08/12 08:26:09;;;;;;;5.18;1.17;;;19.90;99.90;;;;;;5073213;28;20499;-40
2023/08/12 08:28:35;;;;;;;1.90;0.82;;;19.10;99.90;;;;;;5071321;28;20428;-35
2023/08/12 08:31:00;;;;;;;6.15;1.05;;;18.30;99.90;;;;;;5071234;28;20074;-36
2023/08/12 08:33:26;;;;;;;3.42;1.58;;;17.80;99.90;;;;;;5044103;28;20025;-35
2023/08/12 08:35:53;;;;;;;3.22;1.10;;;17.40;99.90;;;;;;5072428;28;20384;-35
2023/08/12 08:38:19;;;;;;;3.50;1.05;;;17.30;99.90;;;;;;5072981;28;20485;-36
2023/08/12 08:40:45;;;;;;;5.32;1.35;;;17.30;99.90;;;;;;5070336;28;20485;-36
2023/08/12 08:43:15;;;;;;;1.98;1.25;;;17.10;99.90;;;;;;5073264;28;20055;-36
2023/08/12 08:45:43;;;;;;;2.40;1.00;;;17.10;99.90;;;;;;5072707;28;20400;-36
2023/08/12 08:48:11;;;;;;;6.82;1.63;;;17.00;99.90;;;;;;5062313;28;20116;-36
2023/08/12 08:50:37;;;;;;;8.70;1.63;;;17.00;99.90;;;;;;5072040;28;20396;-37
2023/08/12 08:53:06;;;;;;;8.73;1.52;;;17.00;99.90;;;;;;5072086;28;20033;-36
2023/08/12 08:55:32;;;;;;;2.97;1.30;;;17.00;99.90;;;;;;5064622;28;20029;-37
2023/08/12 08:57:58;;;;;;;3.70;1.35;;;17.00;99.90;;;;;;5066981;28;20461;-36
2023/08/12 09:00:24;;;;;;;7.47;1.92;;;17.10;99.90;;;;;;5053688;28;20025;-36
2023/08/12 09:02:51;;;;;;;12.43;1.65;;;17.00;99.90;;;;;;5071828;28;20110;-36
2023/08/12 09:05:17;;;;;;;5.70;1.85;;;17.10;99.90;;;;;;5067676;28;20469;-37
2023/08/12 09:07:44;;;;;;;5.07;1.42;;;17.10;99.90;;;;;;5072630;28;20112;-36
2023/08/12 09:10:11;;;;;;;3.83;1.67;;;17.20;99.90;;;;;;5073106;28;20021;-36
2023/08/12 09:12:37;;;;;;;7.97;2.65;;;17.30;99.90;;;;;;5072534;28;20052;-36
2023/08/12 09:15:06;;;;;;;10.68;2.15;;;17.30;99.90;;;;;;5072719;28;20028;-37
2023/08/12 09:17:32;;;;;;;6.70;2.00;;;17.40;99.90;;;;;;5053551;28;20074;-36
2023/08/12 09:19:58;;;;;;;2.28;1.38;;;17.40;99.90;;;;;;5072536;28;20076;-36
2023/08/12 09:22:26;;;;;;;5.70;1.88;;;17.50;99.90;;;;;;5071861;28;20362;-36
2023/08/12 09:24:58;;;;;;;5.57;2.85;;;17.60;99.90;;;;;;5067607;28;20408;-47
2023/08/12 09:27:24;;;;;;;12.98;2.00;;;17.70;99.90;;;;;;5065741;28;20468;-54
2023/08/12 09:29:55;;;;;;;2.80;1.25;;;17.70;99.90;;;;;;5070825;28;20025;-36
2023/08/12 09:32:20;;;;;;;7.32;1.77;;;17.90;99.90;;;;;;5072476;28;20024;-36
2023/08/12 09:34:54;;;;;;;2.40;1.70;;;17.90;99.90;;;;;;5071028;28;20028;-36
2023/08/12 09:37:22;;;;;;;4.80;1.98;;;17.90;99.90;;;;;;5069308;28;20039;-55
2023/08/12 09:39:48;;;;;;;4.53;1.63;;;18.10;99.90;;;;;;5072775;28;20488;-48
2023/08/12 09:42:15;;;;;;;7.68;1.45;;;18.40;99.90;;;;;;5071880;28;20021;-49
2023/08/12 09:44:42;;;;;;;4.70;1.30;;;18.40;99.90;;;;;;5072502;28;20512;-52
2023/08/12 09:47:10;;;;;;;3.63;1.75;;;18.50;99.90;;;;;;5072374;28;20043;-50
2023/08/12 09:49:38;;;;;;;6.63;1.60;;;18.60;99.90;;;;;;5072390;28;20036;-50
2023/08/12 09:52:04;;;;;;;5.57;1.77;;;18.70;99.90;;;;;;5072205;28;20038;-49
2023/08/12 09:54:35;;;;;;;3.33;1.45;;;18.80;99.90;;;;;;5053885;28;20594;-52
2023/08/12 09:57:02;;;;;;;4.85;2.17;;;19.00;99.90;;;;;;5071932;28;20113;-49
2023/08/12 09:59:32;;;;;;;7.60;1.75;;;19.20;99.90;;;;;;5057329;28;20493;-50
2023/08/12 10:01:58;;;;;;;3.03;1.60;;;19.40;99.90;;;;;;5064341;28;20032;-48
2023/08/12 10:04:28;;;;;;;6.20;1.90;;;19.60;99.90;;;;;;5073038;28;20384;-49
2023/08/12 10:06:54;;;;;;;5.82;2.22;;;19.90;99.90;;;;;;5073788;28;20052;-53
2023/08/12 10:09:20;;;;;;;8.55;1.75;;;19.90;99.90;;;;;;5075953;28;20040;-48
2023/08/12 10:11:47;;;;;;;7.65;1.77;;;19.90;99.90;;;;;;5057574;28;20032;-53
2023/08/12 10:14:14;;;;;;;3.78;1.33;;;20.10;99.90;;;;;;5076081;28;20078;-50
2023/08/12 10:16:45;;;;;;;3.80;2.03;;;20.40;99.90;;;;;;5075808;28;20020;-50
2023/08/12 10:19:11;;;;;;;3.60;1.23;;;20.60;99.90;;;;;;5075792;28;20029;-51
2023/08/12 10:21:37;;;;;;;3.93;1.57;;;20.70;99.90;;;;;;5075673;28;20032;-51
2023/08/12 10:24:05;;;;;;;5.25;1.55;;;21.00;99.90;;;;;;5055081;28;20287;-39
2023/08/12 10:26:32;;;;;;;4.68;1.20;;;21.00;99.90;;;;;;5072158;28;20453;-45
2023/08/12 10:28:59;;;;;;;;;;;21.20;99.90;;;;;;5069993;28;20485;-37
2023/08/12 10:31:28;;;;;;;6.25;1.30;;;21.40;99.90;;;;;;5074996;28;19920;-36
2023/08/12 10:33:54;;;;;;;8.38;2.15;;;21.50;99.90;;;;;;5056673;28;20422;-50
2023/08/12 10:36:21;;;;;;;4.60;1.40;;;21.30;99.90;;;;;;5075433;28;20094;-52
2023/08/12 10:38:47;;;;;;;4.18;1.23;;;21.20;99.90;;;;;;5075381;28;20391;-48
2023/08/12 10:41:20;;;;;;;2.05;1.52;;;20.70;99.90;;;;;;5075291;28;20020;-47
2023/08/12 10:43:49;;;;;;;5.95;1.52;;;20.50;99.90;;;;;;5075085;28;20094;-48
2023/08/12 10:46:34;;;;;;;6.60;1.83;;;20.50;99.90;;;;;;5056548;28;20562;-51
2023/08/12 10:49:04;;;;;;;6.47;1.60;;;20.60;99.90;;;;;;5054745;28;20025;-49
2023/08/12 10:51:41;;;;;;;6.68;1.45;;;20.80;99.90;;;;;;5074980;28;20025;-49
2023/08/12 10:54:28;;;;;;;4.50;1.25;;;21.00;99.90;;;;;;5051816;28;20358;-49
2023/08/12 10:57:16;;;;;;;5.20;1.20;;;21.00;99.90;;;;;;5054729;28;20045;-45
2023/08/12 10:59:44;;;;;;;3.33;1.38;;;21.00;99.90;;;;;;5055205;28;20080;-48
2023/08/12 11:02:17;;;;;;;4.05;1.42;;;21.20;99.90;;;;;;5060720;28;20025;-48
2023/08/12 11:04:43;;;;;;;5.43;1.30;;;21.20;99.90;;;;;;5075054;28;20029;-49
2023/08/12 11:07:20;;;;;;;3.60;1.30;;;21.00;99.90;;;;;;5074620;28;20110;-50
2023/08/12 11:09:52;;;;;;;3.83;1.10;;;20.60;99.90;;;;;;5074834;28;20040;-51
2023/08/12 11:12:18;;;;;;;3.40;1.15;;;20.60;99.90;;;;;;5073260;28;20380;-49
2023/08/12 11:14:51;;;;;;;3.58;1.40;;;20.70;99.90;;;;;;5054909;28;20407;-52
2023/08/12 11:17:16;;;;;;;5.90;1.83;;;20.70;99.90;;;;;;5062217;28;20029;-50
2023/08/12 11:19:43;;;;;;;4.65;1.52;;;20.60;99.90;;;;;;5074601;28;20036;-51
2023/08/12 11:22:09;;;;;;;7.30;1.65;;;20.70;99.90;;;;;;5074867;28;20035;-49
2023/08/12 11:24:36;;;;;;;7.28;1.77;;;20.90;99.90;;;;;;5074446;28;20508;-52
2023/08/12 11:27:02;;;;;;;;;;;21.10;99.90;;;;;;5056416;28;20139;-48
2023/08/12 11:29:28;;;;;;;3.25;1.00;;;21.40;99.90;;;;;;5074582;28;19912;-52
2023/08/12 11:31:54;;;;;;;4.72;1.33;;;21.80;99.90;;;;;;5074367;28;20032;-52
2023/08/12 11:34:20;;;;;;;5.45;1.05;;;22.10;99.90;;;;;;5074424;28;20036;-51
2023/08/12 11:36:46;;;;;;;4.85;0.98;;;22.30;99.90;;;;;;5073925;28;20024;-51
2023/08/12 11:39:11;;;;;;;10.50;1.83;;;22.40;99.90;;;;;;5074242;28;20025;-50
2023/08/12 11:41:37;;;;;;;6.15;1.10;;;22.60;99.90;;;;;;5073576;28;20047;-35
2023/08/12 11:44:04;;;;;;;8.82;1.52;;;22.60;99.90;;;;;;5073913;28;20034;-49
2023/08/12 11:46:33;;;;;;;4.15;0.80;;;22.70;99.90;;;;;;5074397;28;20028;-37
2023/08/12 11:48:58;;;;;;;6.15;1.20;;;22.90;99.90;;;;;;5063126;28;20078;-37
2023/08/12 11:51:24;;;;;;;3.13;1.15;;;22.90;99.90;;;;;;5074192;28;20033;-39
2023/08/12 11:53:50;;;;;;;9.55;1.60;;;23.20;99.90;;;;;;5073668;28;20058;-39
2023/08/12 11:56:15;;;;;;;5.72;1.35;;;23.40;99.90;;;;;;5073315;28;20103;-38
2023/08/12 11:58:41;;;;;;;9.77;1.67;;;23.60;99.90;;;;;;5073437;28;20484;-36
2023/08/12 12:01:07;;;;;;;7.47;1.20;;;23.80;99.90;;;;;;5069196;28;20473;-37
2023/08/12 12:03:32;;;;;;;5.30;1.05;;;23.90;99.90;;;;;;5055429;28;20071;-37
2023/08/12 12:05:58;;;;;;;5.18;1.20;;;24.00;99.90;;;;;;5073313;28;20036;-41
2023/08/12 12:08:23;;;;;;;2.78;1.05;;;24.00;99.90;;;;;;5055124;28;20505;-48
2023/08/12 12:10:49;;;;;;;3.08;1.13;;;24.10;99.90;;;;;;5064786;28;20024;-42
2023/08/12 12:13:15;;;;;;;4.82;1.10;;;24.10;99.90;;;;;;5073375;28;20032;-37
2023/08/12 12:15:44;;;;;;;6.30;1.35;;;24.10;99.90;;;;;;5073288;28;20029;-38
2023/08/12 12:18:13;;;;;;;4.32;1.25;;;24.20;99.90;;;;;;5072128;28;20036;-36
2023/08/12 12:21:09;;;;;;;7.32;1.30;;;24.40;99.90;;;;;;5067328;28;20028;-38
2023/08/12 12:23:37;;;;;;;6.43;1.40;;;24.40;99.90;;;;;;5069260;28;20044;-49
2023/08/12 12:26:03;;;;;;;4.22;1.38;;;24.60;99.90;;;;;;5073166;28;20032;-36
2023/08/12 12:28:29;;;;;;;4.03;1.15;;;24.70;99.90;;;;;;5073181;28;20107;-39
2023/08/12 12:30:55;;;;;;;7.90;1.33;;;24.80;99.90;;;;;;5071557;28;20465;-39
2023/08/12 12:33:20;;;;;;;4.18;1.45;;;24.80;99.90;;;;;;5073205;28;20118;-38
2023/08/12 12:35:46;;;;;;;5.82;1.45;;;24.90;99.90;;;;;;5073097;28;20473;-40
2023/08/12 12:38:12;;;;;;;7.82;1.60;;;25.00;99.90;;;;;;5073051;28;20439;-39
2023/08/12 12:40:40;;;;;;;9.63;1.50;;;25.10;99.90;;;;;;5073037;28;20047;-40
2023/08/12 12:43:06;;;;;;;6.50;1.50;;;25.20;99.90;;;;;;5071610;28;20055;-41